LIMELIML

Guest
Details From LIME - Bergamo Orio Al Serio
To LIML - Milano Linate
Flight Number -
Tags Routegen Generated
Created
Modified
Stats Distance 27 nm / 50 km
Max Altitude 100 ft / 30 m
Waypoints 5
Social Downloads 1
Likes 0
Share VATSIM

Download

Looking for another format? Having issues loading an existing format? Contact us
Advertisement - Login to hide

Notes

Departing runway 30 LIME. Arriving runway 17 LIML.

Route

LIME +45.72_+009.61 +45.62_+009.44 +45.53_+009.27 LIML

ID Type Via Altitude Latitude Longitude Leg Dist Tot Dist Heading (true) Name
O LIME APT - 0 ft / 0 m 45.67833˚ 9.70076˚ - 0 nm - -
+45.72_+009.61 LATLON - 100 ft / 30 m 45.71568˚ 9.61202˚ 4 nm 4 nm 301° / 301° -
+45.62_+009.44 LATLON - 100 ft / 30 m 45.62203˚ 9.44005˚ 9 nm 13 nm 232° / 232° -
+45.53_+009.27 LATLON - 100 ft / 30 m 45.52838˚ 9.26808˚ 9 nm 22 nm 232° / 232° -
O LIML APT - 0 ft / 0 m 45.45622˚ 9.27587˚ 4 nm 27 nm 176° / 176° -

Altitude Profile

Advertisement - Login to hide

LIME

Details ICAO LIME (BGY)
Name Bergamo Orio Al Serio
Region Italy
Timezone Europe/Rome (UTC+2.0)
Stats Elevation 779 ft / 237 m (AMSL)
Location 45.672004° 9.706892°
Runways 2
Magnetic Variation 2.655° E

METAR

LIME 271650Z 19007KT 130V210 7000 FEW030CB SCT060 25/18 Q1017 BECMG TS

Decode

TAF

TAF LIME 271100Z 2712/2812 VRB05KT 9999 SCT060 TEMPO 2715/2806 TSRA

Decode

Departure Runways

ID Width Length Bearing (true) Bearing (mag) Surface Threshold Offset Overrun Length
10 148 ft / 45 m 9,897 ft / 3,017 m 104.89° 102.24° Asphalt 312 ft / 95 m 0 ft / 0 m
12 59 ft / 18 m 2,665 ft / 812 m 121.47° 118.82° Asphalt 197 ft / 60 m 0 ft / 0 m
28 148 ft / 45 m 9,897 ft / 3,017 m 284.91° 282.26° Asphalt 712 ft / 217 m 0 ft / 0 m
30 59 ft / 18 m 2,665 ft / 812 m 301.48° 298.83° Asphalt 312 ft / 95 m 0 ft / 0 m

LIML

Details ICAO LIML (LIN)
Name Milano Linate
Region Italy
Timezone Europe/Rome (UTC+2.0)
Stats Elevation 353 ft / 108 m (AMSL)
Location 45.450302° 9.272801°
Runways 2
Magnetic Variation 2.552° E

METAR

LIML 271650Z 22005KT 190V260 9999 FEW030 26/15 Q1015 NOSIG

Decode

TAF

TAF LIML 271100Z 2712/2812 VRB05KT 9999 SCT060 TEMPO 2715/2806 TSRA

Decode

Destination Runways

ID Width Length Bearing (true) Bearing (mag) Surface Threshold Offset Overrun Length
17 72 ft / 22 m 1,975 ft / 602 m 175.64° 173.09° Asphalt 200 ft / 61 m 0 ft / 0 m
18 197 ft / 60 m 8,017 ft / 2,443 m 175.67° 173.12° Asphalt 0 ft / 0 m 190 ft / 58 m
35 72 ft / 22 m 1,975 ft / 602 m 355.64° 353.09° Asphalt 200 ft / 61 m 0 ft / 0 m
36 197 ft / 60 m 8,017 ft / 2,443 m 355.68° 353.13° Asphalt 0 ft / 0 m 980 ft / 299 m

Approach Navaids

Runway Type Ident Frequency Range Bearing (true) Bearing (mag) Slope Elevation
36 Localiser ILNT 109.55 MHz 18 nm / 33 km 355.68° 353.12° - 353 ft / 108 m (AMSL)
36 Glidescope ILNT 109.55 MHz 10 nm / 19 km 355.68° 353.12° 3.00° 352 ft / 107 m (AMSL)
36 DME ILNT 109.55 MHz 25 nm / 46 km - - - 352 ft / 107 m (AMSL)

Popular Alternatives